Carrollton, Indiana
Current Conditions -  °F | °C
As of 4:53 PM on Wednesday 22 Oct 2014 (Local Time) from KGEZ Reporting Station
Clear Clear  
Wind Chill: 59°   Ceiling: Unl
Heat Index: 59°   Visibility: 10mi
Dew Point: 40°   Wind: 7mph
Humidity: 49%   Direction: 60°ENE
Pressure: 30.26"   Gusts: NA
Location:  39.71°N, 85.8206°W
Report Text: KGEZ 222053Z AUTO 06006KT 10SM CLR 15/04 A3026 RMK AO2 SLP248 T01500044 56015
Loading
Personal Weather Stations






























Interactive Weather Map
Tropical Storm Tracking
New forecast layout! Learn more

10-Day Weather Forecast

Advertisements
Track Severe Weather on mobile